sensor_id;sensor_type;location;lat;lon;timestamp;temperature;humidity
22071;DHT22;11200;51.488;6.668;2022-07-17T00:00:37;15.90;99.90
22071;DHT22;11200;51.488;6.668;2022-07-17T00:03:05;15.90;99.90
22071;DHT22;11200;51.488;6.668;2022-07-17T00:05:31;16.00;99.90
22071;DHT22;11200;51.488;6.668;2022-07-17T00:07:56;15.90;99.90
22071;DHT22;11200;51.488;6.668;2022-07-17T00:10:22;15.80;99.90
22071;DHT22;11200;51.488;6.668;2022-07-17T00:12:48;15.80;99.90
22071;DHT22;11200;51.488;6.668;2022-07-17T00:15:14;16.40;99.90
22071;DHT22;11200;51.488;6.668;2022-07-17T00:17:40;15.70;99.90
22071;DHT22;11200;51.488;6.668;2022-07-17T00:20:06;15.60;99.90
22071;DHT22;11200;51.488;6.668;2022-07-17T00:22:33;15.60;99.90
22071;DHT22;11200;51.488;6.668;2022-07-17T00:24:59;15.50;99.90
22071;DHT22;11200;51.488;6.668;2022-07-17T00:27:24;15.50;99.90
22071;DHT22;11200;51.488;6.668;2022-07-17T00:29:50;15.40;99.90
22071;DHT22;11200;51.488;6.668;2022-07-17T00:32:15;15.40;99.90
22071;DHT22;11200;51.488;6.668;2022-07-17T00:34:42;15.40;99.90
22071;DHT22;11200;51.488;6.668;2022-07-17T00:37:07;15.30;99.90
22071;DHT22;11200;51.488;6.668;2022-07-17T00:39:33;15.30;99.90
22071;DHT22;11200;51.488;6.668;2022-07-17T00:41:59;15.40;99.90
22071;DHT22;11200;51.488;6.668;2022-07-17T00:44:26;15.20;99.90
22071;DHT22;11200;51.488;6.668;2022-07-17T00:46:52;15.20;99.90
22071;DHT22;11200;51.488;6.668;2022-07-17T00:49:17;15.20;99.90
22071;DHT22;11200;51.488;6.668;2022-07-17T00:51:43;15.10;99.90
22071;DHT22;11200;51.488;6.668;2022-07-17T00:54:12;15.00;99.90
22071;DHT22;11200;51.488;6.668;2022-07-17T00:56:40;15.00;99.90
22071;DHT22;11200;51.488;6.668;2022-07-17T00:59:07;15.00;99.90
22071;DHT22;11200;51.488;6.668;2022-07-17T01:01:32;15.00;99.90
22071;DHT22;11200;51.488;6.668;2022-07-17T01:03:58;14.90;99.90
22071;DHT22;11200;51.488;6.668;2022-07-17T01:06:24;14.90;99.90
22071;DHT22;11200;51.488;6.668;2022-07-17T01:08:50;14.80;99.90
22071;DHT22;11200;51.488;6.668;2022-07-17T01:11:15;14.80;99.90
22071;DHT22;11200;51.488;6.668;2022-07-17T01:13:42;15.10;99.90
22071;DHT22;11200;51.488;6.668;2022-07-17T01:16:08;14.70;99.90
22071;DHT22;11200;51.488;6.668;2022-07-17T01:18:34;14.70;99.90
22071;DHT22;11200;51.488;6.668;2022-07-17T01:21:07;14.60;99.90
22071;DHT22;11200;51.488;6.668;2022-07-17T01:23:33;14.70;99.90
22071;DHT22;11200;51.488;6.668;2022-07-17T01:25:58;14.60;99.90
22071;DHT22;11200;51.488;6.668;2022-07-17T01:28:24;14.60;99.90
22071;DHT22;11200;51.488;6.668;2022-07-17T01:30:51;14.60;99.90
22071;DHT22;11200;51.488;6.668;2022-07-17T01:33:18;14.50;99.90
22071;DHT22;11200;51.488;6.668;2022-07-17T01:35:44;14.50;99.90
22071;DHT22;11200;51.488;6.668;2022-07-17T01:38:09;14.50;99.90
22071;DHT22;11200;51.488;6.668;2022-07-17T01:40:35;14.40;99.90
22071;DHT22;11200;51.488;6.668;2022-07-17T01:43:01;14.40;99.90
22071;DHT22;11200;51.488;6.668;2022-07-17T01:45:26;14.30;99.90
22071;DHT22;11200;51.488;6.668;2022-07-17T01:47:52;14.30;99.90
22071;DHT22;11200;51.488;6.668;2022-07-17T01:50:17;14.30;99.90
22071;DHT22;11200;51.488;6.668;2022-07-17T01:52:44;14.30;99.90
22071;DHT22;11200;51.488;6.668;2022-07-17T01:55:12;14.20;99.90
22071;DHT22;11200;51.488;6.668;2022-07-17T01:57:38;14.20;99.90
22071;DHT22;11200;51.488;6.668;2022-07-17T02:00:06;14.20;99.90
22071;DHT22;11200;51.488;6.668;2022-07-17T02:02:32;14.10;99.90
22071;DHT22;11200;51.488;6.668;2022-07-17T02:04:58;14.10;99.90
22071;DHT22;11200;51.488;6.668;2022-07-17T02:07:23;14.00;99.90
22071;DHT22;11200;51.488;6.668;2022-07-17T02:09:50;14.00;99.90
22071;DHT22;11200;51.488;6.668;2022-07-17T02:12:15;14.00;99.90
22071;DHT22;11200;51.488;6.668;2022-07-17T02:14:41;14.00;99.90
22071;DHT22;11200;51.488;6.668;2022-07-17T02:17:07;13.90;99.90
22071;DHT22;11200;51.488;6.668;2022-07-17T02:19:32;14.10;99.90
22071;DHT22;11200;51.488;6.668;2022-07-17T02:21:58;13.90;99.90
22071;DHT22;11200;51.488;6.668;2022-07-17T02:24:23;13.90;99.90
22071;DHT22;11200;51.488;6.668;2022-07-17T02:26:49;13.90;99.90
22071;DHT22;11200;51.488;6.668;2022-07-17T02:29:14;13.80;99.90
22071;DHT22;11200;51.488;6.668;2022-07-17T02:31:40;13.80;99.90
22071;DHT22;11200;51.488;6.668;2022-07-17T02:34:06;13.90;99.90
22071;DHT22;11200;51.488;6.668;2022-07-17T02:36:32;13.80;99.90
22071;DHT22;11200;51.488;6.668;2022-07-17T02:38:57;13.70;99.90
22071;DHT22;11200;51.488;6.668;2022-07-17T02:41:23;14.10;99.90
22071;DHT22;11200;51.488;6.668;2022-07-17T02:43:49;13.70;99.90
22071;DHT22;11200;51.488;6.668;2022-07-17T02:46:14;13.90;99.90
22071;DHT22;11200;51.488;6.668;2022-07-17T02:48:41;13.60;99.90
22071;DHT22;11200;51.488;6.668;2022-07-17T02:51:06;13.60;99.90
22071;DHT22;11200;51.488;6.668;2022-07-17T02:53:32;13.60;99.90
22071;DHT22;11200;51.488;6.668;2022-07-17T02:55:58;13.50;99.90
22071;DHT22;11200;51.488;6.668;2022-07-17T02:58:23;13.40;99.90
22071;DHT22;11200;51.488;6.668;2022-07-17T03:00:49;13.50;99.90
22071;DHT22;11200;51.488;6.668;2022-07-17T03:03:15;13.50;99.90
22071;DHT22;11200;51.488;6.668;2022-07-17T03:05:41;13.40;99.90
22071;DHT22;11200;51.488;6.668;2022-07-17T03:08:06;13.40;99.90
22071;DHT22;11200;51.488;6.668;2022-07-17T03:10:32;13.90;99.90
22071;DHT22;11200;51.488;6.668;2022-07-17T03:12:58;13.40;99.90
22071;DHT22;11200;51.488;6.668;2022-07-17T03:15:23;13.40;99.90
22071;DHT22;11200;51.488;6.668;2022-07-17T03:17:49;13.30;99.90
22071;DHT22;11200;51.488;6.668;2022-07-17T03:20:15;13.30;99.90
22071;DHT22;11200;51.488;6.668;2022-07-17T03:22:41;13.30;99.90
22071;DHT22;11200;51.488;6.668;2022-07-17T03:25:07;13.20;99.90
22071;DHT22;11200;51.488;6.668;2022-07-17T03:27:33;13.20;99.90
22071;DHT22;11200;51.488;6.668;2022-07-17T03:29:58;13.20;99.90
22071;DHT22;11200;51.488;6.668;2022-07-17T03:32:24;13.00;99.90
22071;DHT22;11200;51.488;6.668;2022-07-17T03:34:49;13.20;99.90
22071;DHT22;11200;51.488;6.668;2022-07-17T03:37:15;13.20;99.90
22071;DHT22;11200;51.488;6.668;2022-07-17T03:39:41;13.10;99.90
22071;DHT22;11200;51.488;6.668;2022-07-17T03:42:07;13.00;99.90
22071;DHT22;11200;51.488;6.668;2022-07-17T03:44:33;13.00;99.90
22071;DHT22;11200;51.488;6.668;2022-07-17T03:46:58;13.10;99.90
22071;DHT22;11200;51.488;6.668;2022-07-17T03:49:24;13.10;99.90
22071;DHT22;11200;51.488;6.668;2022-07-17T03:51:50;13.00;99.90
22071;DHT22;11200;51.488;6.668;2022-07-17T03:54:15;13.10;99.90
22071;DHT22;11200;51.488;6.668;2022-07-17T03:56:41;12.90;99.90
22071;DHT22;11200;51.488;6.668;2022-07-17T03:59:06;12.90;99.90
22071;DHT22;11200;51.488;6.668;2022-07-17T04:01:32;12.90;99.90
22071;DHT22;11200;51.488;6.668;2022-07-17T04:03:57;13.60;99.90
22071;DHT22;11200;51.488;6.668;2022-07-17T04:06:23;12.80;99.90
22071;DHT22;11200;51.488;6.668;2022-07-17T04:08:49;12.90;99.90
22071;DHT22;11200;51.488;6.668;2022-07-17T04:11:14;12.80;99.90
22071;DHT22;11200;51.488;6.668;2022-07-17T04:13:40;12.80;99.90
22071;DHT22;11200;51.488;6.668;2022-07-17T04:16:06;12.70;99.90
22071;DHT22;11200;51.488;6.668;2022-07-17T04:18:34;12.70;99.90
22071;DHT22;11200;51.488;6.668;2022-07-17T04:21:04;12.80;99.90
22071;DHT22;11200;51.488;6.668;2022-07-17T04:23:29;12.70;99.90
22071;DHT22;11200;51.488;6.668;2022-07-17T04:25:55;12.70;99.90
22071;DHT22;11200;51.488;6.668;2022-07-17T04:28:21;12.70;99.90
22071;DHT22;11200;51.488;6.668;2022-07-17T04:30:47;12.60;99.90
22071;DHT22;11200;51.488;6.668;2022-07-17T04:33:14;12.60;99.90
22071;DHT22;11200;51.488;6.668;2022-07-17T04:35:40;12.60;99.90
22071;DHT22;11200;51.488;6.668;2022-07-17T04:38:07;12.90;99.90
22071;DHT22;11200;51.488;6.668;2022-07-17T04:40:35;12.50;99.90
22071;DHT22;11200;51.488;6.668;2022-07-17T04:43:01;12.60;99.90
22071;DHT22;11200;51.488;6.668;2022-07-17T04:45:27;12.60;99.90
22071;DHT22;11200;51.488;6.668;2022-07-17T04:47:52;12.60;99.90
22071;DHT22;11200;51.488;6.668;2022-07-17T04:50:18;12.60;99.90
22071;DHT22;11200;51.488;6.668;2022-07-17T04:52:44;12.60;99.90
22071;DHT22;11200;51.488;6.668;2022-07-17T04:55:09;12.40;99.90
22071;DHT22;11200;51.488;6.668;2022-07-17T04:57:35;12.60;99.90
22071;DHT22;11200;51.488;6.668;2022-07-17T05:00:05;12.90;99.90
22071;DHT22;11200;51.488;6.668;2022-07-17T05:02:31;12.60;99.90
22071;DHT22;11200;51.488;6.668;2022-07-17T05:04:57;12.60;99.90
22071;DHT22;11200;51.488;6.668;2022-07-17T05:07:23;12.60;99.90
22071;DHT22;11200;51.488;6.668;2022-07-17T05:09:49;12.60;99.90
22071;DHT22;11200;51.488;6.668;2022-07-17T05:12:14;12.60;99.90
22071;DHT22;11200;51.488;6.668;2022-07-17T05:14:40;12.60;99.90
22071;DHT22;11200;51.488;6.668;2022-07-17T05:17:05;12.60;99.90
22071;DHT22;11200;51.488;6.668;2022-07-17T05:19:31;12.60;99.90
22071;DHT22;11200;51.488;6.668;2022-07-17T05:21:57;12.60;99.90
22071;DHT22;11200;51.488;6.668;2022-07-17T05:24:23;12.60;99.90
22071;DHT22;11200;51.488;6.668;2022-07-17T05:26:48;12.80;99.90
22071;DHT22;11200;51.488;6.668;2022-07-17T05:29:14;12.60;99.90
22071;DHT22;11200;51.488;6.668;2022-07-17T05:31:39;12.70;99.90
22071;DHT22;11200;51.488;6.668;2022-07-17T05:34:05;12.70;99.90
22071;DHT22;11200;51.488;6.668;2022-07-17T05:36:30;12.80;99.90
22071;DHT22;11200;51.488;6.668;2022-07-17T05:38:56;12.80;99.90
22071;DHT22;11200;51.488;6.668;2022-07-17T05:41:22;13.00;99.90
22071;DHT22;11200;51.488;6.668;2022-07-17T05:43:47;12.80;99.90
22071;DHT22;11200;51.488;6.668;2022-07-17T05:46:13;12.80;99.90
22071;DHT22;11200;51.488;6.668;2022-07-17T05:48:38;12.80;99.90
22071;DHT22;11200;51.488;6.668;2022-07-17T05:51:04;12.90;99.90
22071;DHT22;11200;51.488;6.668;2022-07-17T05:53:30;12.90;99.90
22071;DHT22;11200;51.488;6.668;2022-07-17T05:55:55;12.90;99.90
22071;DHT22;11200;51.488;6.668;2022-07-17T05:58:21;13.40;99.90
22071;DHT22;11200;51.488;6.668;2022-07-17T06:00:47;13.10;99.90
22071;DHT22;11200;51.488;6.668;2022-07-17T06:03:14;13.10;99.90
22071;DHT22;11200;51.488;6.668;2022-07-17T06:05:40;13.00;99.90
22071;DHT22;11200;51.488;6.668;2022-07-17T06:08:06;13.10;99.90
22071;DHT22;11200;51.488;6.668;2022-07-17T06:10:32;13.10;99.90
22071;DHT22;11200;51.488;6.668;2022-07-17T06:12:58;13.10;99.90
22071;DHT22;11200;51.488;6.668;2022-07-17T06:15:24;13.50;99.90
22071;DHT22;11200;51.488;6.668;2022-07-17T06:17:50;13.30;99.90
22071;DHT22;11200;51.488;6.668;2022-07-17T06:20:16;13.30;99.90
22071;DHT22;11200;51.488;6.668;2022-07-17T06:22:43;13.40;99.90
22071;DHT22;11200;51.488;6.668;2022-07-17T06:25:09;13.60;99.90
22071;DHT22;11200;51.488;6.668;2022-07-17T06:27:35;13.50;99.90
22071;DHT22;11200;51.488;6.668;2022-07-17T06:30:01;13.60;99.90
22071;DHT22;11200;51.488;6.668;2022-07-17T06:32:27;13.70;99.90
22071;DHT22;11200;51.488;6.668;2022-07-17T06:34:52;13.60;99.90
22071;DHT22;11200;51.488;6.668;2022-07-17T06:37:18;13.70;99.90
22071;DHT22;11200;51.488;6.668;2022-07-17T06:39:44;13.70;99.90
22071;DHT22;11200;51.488;6.668;2022-07-17T06:42:09;13.80;99.90
22071;DHT22;11200;51.488;6.668;2022-07-17T06:44:36;13.80;99.90
22071;DHT22;11200;51.488;6.668;2022-07-17T06:47:02;13.90;99.90
22071;DHT22;11200;51.488;6.668;2022-07-17T06:49:28;13.90;99.90
22071;DHT22;11200;51.488;6.668;2022-07-17T06:51:54;14.50;99.90
22071;DHT22;11200;51.488;6.668;2022-07-17T06:54:19;14.40;99.90
22071;DHT22;11200;51.488;6.668;2022-07-17T06:56:49;14.10;99.90
22071;DHT22;11200;51.488;6.668;2022-07-17T06:59:15;14.20;99.90
22071;DHT22;11200;51.488;6.668;2022-07-17T07:01:40;14.20;99.90
22071;DHT22;11200;51.488;6.668;2022-07-17T07:04:06;14.30;99.90
22071;DHT22;11200;51.488;6.668;2022-07-17T07:06:31;14.40;99.90
22071;DHT22;11200;51.488;6.668;2022-07-17T07:08:57;14.40;99.90
22071;DHT22;11200;51.488;6.668;2022-07-17T07:11:23;14.50;99.90
22071;DHT22;11200;51.488;6.668;2022-07-17T07:13:49;14.60;99.90
22071;DHT22;11200;51.488;6.668;2022-07-17T07:16:15;14.70;99.90
22071;DHT22;11200;51.488;6.668;2022-07-17T07:18:41;14.80;99.90
22071;DHT22;11200;51.488;6.668;2022-07-17T07:21:07;14.90;99.90
22071;DHT22;11200;51.488;6.668;2022-07-17T07:23:32;15.00;99.90
22071;DHT22;11200;51.488;6.668;2022-07-17T07:25:58;15.10;99.90
22071;DHT22;11200;51.488;6.668;2022-07-17T07:28:23;15.20;99.90
22071;DHT22;11200;51.488;6.668;2022-07-17T07:30:49;15.30;99.90
22071;DHT22;11200;51.488;6.668;2022-07-17T07:33:15;15.40;99.90
22071;DHT22;11200;51.488;6.668;2022-07-17T07:35:42;15.60;99.90
22071;DHT22;11200;51.488;6.668;2022-07-17T07:38:08;15.70;99.90
22071;DHT22;11200;51.488;6.668;2022-07-17T07:40:34;15.90;99.90
22071;DHT22;11200;51.488;6.668;2022-07-17T07:43:18;16.10;99.90
22071;DHT22;11200;51.488;6.668;2022-07-17T07:45:44;16.80;99.90
22071;DHT22;11200;51.488;6.668;2022-07-17T07:48:10;16.40;99.90
22071;DHT22;11200;51.488;6.668;2022-07-17T07:50:36;16.80;99.90
22071;DHT22;11200;51.488;6.668;2022-07-17T07:53:01;16.80;99.90
22071;DHT22;11200;51.488;6.668;2022-07-17T07:55:27;17.00;99.90
22071;DHT22;11200;51.488;6.668;2022-07-17T07:58:06;17.20;99.90
22071;DHT22;11200;51.488;6.668;2022-07-17T08:00:33;17.40;99.90
22071;DHT22;11200;51.488;6.668;2022-07-17T08:02:59;17.60;99.90
22071;DHT22;11200;51.488;6.668;2022-07-17T08:05:25;17.80;99.90
22071;DHT22;11200;51.488;6.668;2022-07-17T08:07:51;18.00;99.90
22071;DHT22;11200;51.488;6.668;2022-07-17T08:10:17;18.30;99.90
22071;DHT22;11200;51.488;6.668;2022-07-17T08:12:42;18.50;99.90
22071;DHT22;11200;51.488;6.668;2022-07-17T08:15:09;18.70;99.90
22071;DHT22;11200;51.488;6.668;2022-07-17T08:17:35;19.00;99.90
22071;DHT22;11200;51.488;6.668;2022-07-17T08:20:00;19.10;99.90
22071;DHT22;11200;51.488;6.668;2022-07-17T08:22:26;19.40;99.90
22071;DHT22;11200;51.488;6.668;2022-07-17T08:24:52;19.60;99.90
22071;DHT22;11200;51.488;6.668;2022-07-17T08:27:17;20.00;99.90
22071;DHT22;11200;51.488;6.668;2022-07-17T08:29:43;20.40;99.90
22071;DHT22;11200;51.488;6.668;2022-07-17T08:32:08;20.80;99.90
22071;DHT22;11200;51.488;6.668;2022-07-17T08:34:34;21.10;99.90
22071;DHT22;11200;51.488;6.668;2022-07-17T08:36:59;21.50;99.90
22071;DHT22;11200;51.488;6.668;2022-07-17T08:39:25;21.70;99.90
22071;DHT22;11200;51.488;6.668;2022-07-17T08:41:51;22.00;99.90
22071;DHT22;11200;51.488;6.668;2022-07-17T08:44:16;22.30;99.90
22071;DHT22;11200;51.488;6.668;2022-07-17T08:46:43;22.60;99.90
22071;DHT22;11200;51.488;6.668;2022-07-17T08:49:10;22.80;99.90
22071;DHT22;11200;51.488;6.668;2022-07-17T08:51:36;23.00;99.90
22071;DHT22;11200;51.488;6.668;2022-07-17T08:54:02;23.20;99.90
22071;DHT22;11200;51.488;6.668;2022-07-17T08:56:28;23.50;99.90
22071;DHT22;11200;51.488;6.668;2022-07-17T08:58:54;23.70;99.90
22071;DHT22;11200;51.488;6.668;2022-07-17T09:01:21;24.00;99.90
22071;DHT22;11200;51.488;6.668;2022-07-17T09:04:02;24.10;99.90
22071;DHT22;11200;51.488;6.668;2022-07-17T09:06:35;24.30;99.90
22071;DHT22;11200;51.488;6.668;2022-07-17T09:09:13;25.20;99.90
22071;DHT22;11200;51.488;6.668;2022-07-17T09:14:08;24.80;99.90
22071;DHT22;11200;51.488;6.668;2022-07-17T09:16:47;24.90;99.90
22071;DHT22;11200;51.488;6.668;2022-07-17T09:19:24;25.10;99.90
22071;DHT22;11200;51.488;6.668;2022-07-17T09:21:50;25.30;99.90
22071;DHT22;11200;51.488;6.668;2022-07-17T09:24:16;25.50;99.90
22071;DHT22;11200;51.488;6.668;2022-07-17T09:26:44;25.60;99.90
22071;DHT22;11200;51.488;6.668;2022-07-17T09:29:10;25.80;99.90
22071;DHT22;11200;51.488;6.668;2022-07-17T09:31:37;26.00;99.90
22071;DHT22;11200;51.488;6.668;2022-07-17T09:34:03;26.20;99.90
22071;DHT22;11200;51.488;6.668;2022-07-17T09:36:29;26.30;99.90
22071;DHT22;11200;51.488;6.668;2022-07-17T09:38:57;26.50;99.90
22071;DHT22;11200;51.488;6.668;2022-07-17T09:41:24;26.70;99.90
22071;DHT22;11200;51.488;6.668;2022-07-17T09:43:54;26.90;99.90
22071;DHT22;11200;51.488;6.668;2022-07-17T09:46:26;27.00;99.90
22071;DHT22;11200;51.488;6.668;2022-07-17T09:48:55;27.20;99.90
22071;DHT22;11200;51.488;6.668;2022-07-17T09:51:34;27.30;99.90
22071;DHT22;11200;51.488;6.668;2022-07-17T09:54:04;27.50;99.90
22071;DHT22;11200;51.488;6.668;2022-07-17T09:56:32;27.70;99.90
22071;DHT22;11200;51.488;6.668;2022-07-17T09:59:07;27.80;99.90
22071;DHT22;11200;51.488;6.668;2022-07-17T10:01:34;28.00;99.90
22071;DHT22;11200;51.488;6.668;2022-07-17T10:04:02;28.10;99.90
22071;DHT22;11200;51.488;6.668;2022-07-17T10:06:28;28.30;99.90
22071;DHT22;11200;51.488;6.668;2022-07-17T10:08:55;28.40;99.90
22071;DHT22;11200;51.488;6.668;2022-07-17T10:11:22;28.60;99.90
22071;DHT22;11200;51.488;6.668;2022-07-17T10:13:50;28.70;99.90
22071;DHT22;11200;51.488;6.668;2022-07-17T10:16:30;28.80;99.90
22071;DHT22;11200;51.488;6.668;2022-07-17T10:18:56;28.90;99.90
22071;DHT22;11200;51.488;6.668;2022-07-17T10:21:26;29.00;99.90
22071;DHT22;11200;51.488;6.668;2022-07-17T10:26:41;29.30;99.90
22071;DHT22;11200;51.488;6.668;2022-07-17T10:29:38;29.40;99.90
22071;DHT22;11200;51.488;6.668;2022-07-17T10:32:22;29.60;99.90
22071;DHT22;11200;51.488;6.668;2022-07-17T10:34:52;29.70;99.90
22071;DHT22;11200;51.488;6.668;2022-07-17T10:37:24;29.80;99.90
22071;DHT22;11200;51.488;6.668;2022-07-17T10:40:00;30.00;99.90
22071;DHT22;11200;51.488;6.668;2022-07-17T10:45:42;30.20;99.90
22071;DHT22;11200;51.488;6.668;2022-07-17T10:48:09;30.30;99.90
22071;DHT22;11200;51.488;6.668;2022-07-17T10:50:39;30.40;99.90
22071;DHT22;11200;51.488;6.668;2022-07-17T10:53:33;30.50;99.90
22071;DHT22;11200;51.488;6.668;2022-07-17T10:56:05;30.60;99.90
22071;DHT22;11200;51.488;6.668;2022-07-17T10:58:33;30.60;99.90
22071;DHT22;11200;51.488;6.668;2022-07-17T11:03:46;30.80;99.90
22071;DHT22;11200;51.488;6.668;2022-07-17T11:06:17;30.90;99.90
22071;DHT22;11200;51.488;6.668;2022-07-17T11:08:47;30.90;99.90
22071;DHT22;11200;51.488;6.668;2022-07-17T11:11:13;31.00;99.90
22071;DHT22;11200;51.488;6.668;2022-07-17T11:13:39;31.10;99.90
22071;DHT22;11200;51.488;6.668;2022-07-17T11:16:04;31.20;99.90
22071;DHT22;11200;51.488;6.668;2022-07-17T11:18:30;31.30;99.90
22071;DHT22;11200;51.488;6.668;2022-07-17T11:20:58;31.40;99.90
22071;DHT22;11200;51.488;6.668;2022-07-17T11:23:27;31.50;99.90
22071;DHT22;11200;51.488;6.668;2022-07-17T11:26:02;31.50;99.90
22071;DHT22;11200;51.488;6.668;2022-07-17T11:28:42;31.70;99.90
22071;DHT22;11200;51.488;6.668;2022-07-17T11:33:54;31.80;99.90
22071;DHT22;11200;51.488;6.668;2022-07-17T11:36:43;31.90;99.90
22071;DHT22;11200;51.488;6.668;2022-07-17T11:39:14;32.00;99.90
22071;DHT22;11200;51.488;6.668;2022-07-17T11:41:45;32.10;99.90
22071;DHT22;11200;51.488;6.668;2022-07-17T11:44:13;32.10;99.90
22071;DHT22;11200;51.488;6.668;2022-07-17T11:46:45;32.10;99.90
22071;DHT22;11200;51.488;6.668;2022-07-17T11:49:11;32.10;99.90
22071;DHT22;11200;51.488;6.668;2022-07-17T11:51:42;32.20;99.90
22071;DHT22;11200;51.488;6.668;2022-07-17T11:54:14;32.30;99.90
22071;DHT22;11200;51.488;6.668;2022-07-17T11:56:40;32.30;99.90
22071;DHT22;11200;51.488;6.668;2022-07-17T11:59:07;32.30;99.90
22071;DHT22;11200;51.488;6.668;2022-07-17T12:01:43;32.40;99.90
22071;DHT22;11200;51.488;6.668;2022-07-17T12:04:12;32.40;99.90
22071;DHT22;11200;51.488;6.668;2022-07-17T12:06:38;32.50;99.90
22071;DHT22;11200;51.488;6.668;2022-07-17T12:09:05;32.50;99.90
22071;DHT22;11200;51.488;6.668;2022-07-17T12:11:31;32.60;99.90
22071;DHT22;11200;51.488;6.668;2022-07-17T12:14:06;32.60;99.90
22071;DHT22;11200;51.488;6.668;2022-07-17T12:16:35;32.70;99.90
22071;DHT22;11200;51.488;6.668;2022-07-17T12:21:32;32.70;99.90
22071;DHT22;11200;51.488;6.668;2022-07-17T12:24:01;32.60;99.90
22071;DHT22;11200;51.488;6.668;2022-07-17T12:26:28;32.70;99.90
22071;DHT22;11200;51.488;6.668;2022-07-17T12:28:54;32.70;99.90
22071;DHT22;11200;51.488;6.668;2022-07-17T12:31:20;32.60;99.90
22071;DHT22;11200;51.488;6.668;2022-07-17T12:33:46;32.60;99.90
22071;DHT22;11200;51.488;6.668;2022-07-17T12:36:12;32.60;99.90
22071;DHT22;11200;51.488;6.668;2022-07-17T12:38:38;32.50;99.90
22071;DHT22;11200;51.488;6.668;2022-07-17T12:41:04;32.50;99.90
22071;DHT22;11200;51.488;6.668;2022-07-17T12:43:30;32.50;99.90
22071;DHT22;11200;51.488;6.668;2022-07-17T12:45:56;32.50;99.90
22071;DHT22;11200;51.488;6.668;2022-07-17T12:48:22;32.50;99.90
22071;DHT22;11200;51.488;6.668;2022-07-17T12:50:49;32.60;99.90
22071;DHT22;11200;51.488;6.668;2022-07-17T12:53:15;32.50;99.90
22071;DHT22;11200;51.488;6.668;2022-07-17T12:55:41;32.50;99.90
22071;DHT22;11200;51.488;6.668;2022-07-17T12:58:06;32.40;99.90
22071;DHT22;11200;51.488;6.668;2022-07-17T13:00:32;32.40;99.90
22071;DHT22;11200;51.488;6.668;2022-07-17T13:02:58;32.40;99.90
22071;DHT22;11200;51.488;6.668;2022-07-17T13:05:24;32.40;99.90
22071;DHT22;11200;51.488;6.668;2022-07-17T13:07:50;32.30;99.90
22071;DHT22;11200;51.488;6.668;2022-07-17T13:10:16;32.30;99.90
22071;DHT22;11200;51.488;6.668;2022-07-17T13:12:42;32.10;99.90
22071;DHT22;11200;51.488;6.668;2022-07-17T13:15:08;32.10;99.90
22071;DHT22;11200;51.488;6.668;2022-07-17T13:17:34;32.10;99.90
22071;DHT22;11200;51.488;6.668;2022-07-17T13:20:02;32.10;99.90
22071;DHT22;11200;51.488;6.668;2022-07-17T13:22:27;32.00;99.90
22071;DHT22;11200;51.488;6.668;2022-07-17T13:24:53;32.00;99.90
22071;DHT22;11200;51.488;6.668;2022-07-17T13:27:18;31.90;99.90
22071;DHT22;11200;51.488;6.668;2022-07-17T13:29:44;31.90;99.90
22071;DHT22;11200;51.488;6.668;2022-07-17T13:32:10;31.80;99.90
22071;DHT22;11200;51.488;6.668;2022-07-17T13:34:35;31.70;99.90
22071;DHT22;11200;51.488;6.668;2022-07-17T13:37:01;31.70;99.90
22071;DHT22;11200;51.488;6.668;2022-07-17T13:39:27;31.60;99.90
22071;DHT22;11200;51.488;6.668;2022-07-17T13:41:53;31.50;99.90
22071;DHT22;11200;51.488;6.668;2022-07-17T13:44:19;31.50;99.90
22071;DHT22;11200;51.488;6.668;2022-07-17T13:46:44;31.50;99.90
22071;DHT22;11200;51.488;6.668;2022-07-17T13:49:10;31.50;99.90
22071;DHT22;11200;51.488;6.668;2022-07-17T13:51:36;31.40;99.90
22071;DHT22;11200;51.488;6.668;2022-07-17T13:54:01;31.40;99.90
22071;DHT22;11200;51.488;6.668;2022-07-17T13:56:27;31.40;99.90
22071;DHT22;11200;51.488;6.668;2022-07-17T13:58:53;31.30;99.90
22071;DHT22;11200;51.488;6.668;2022-07-17T14:01:19;31.30;99.90
22071;DHT22;11200;51.488;6.668;2022-07-17T14:03:45;31.20;99.90
22071;DHT22;11200;51.488;6.668;2022-07-17T14:06:10;31.10;99.90
22071;DHT22;11200;51.488;6.668;2022-07-17T14:08:36;31.20;99.90
22071;DHT22;11200;51.488;6.668;2022-07-17T14:11:02;31.10;99.90
22071;DHT22;11200;51.488;6.668;2022-07-17T14:13:28;31.10;99.90
22071;DHT22;11200;51.488;6.668;2022-07-17T14:15:54;31.10;99.90
22071;DHT22;11200;51.488;6.668;2022-07-17T14:18:20;31.10;99.90
22071;DHT22;11200;51.488;6.668;2022-07-17T14:20:45;31.00;99.90
22071;DHT22;11200;51.488;6.668;2022-07-17T14:23:11;31.00;99.90
22071;DHT22;11200;51.488;6.668;2022-07-17T14:25:37;31.30;99.90
22071;DHT22;11200;51.488;6.668;2022-07-17T14:28:03;31.00;99.90
22071;DHT22;11200;51.488;6.668;2022-07-17T14:30:28;30.90;99.90
22071;DHT22;11200;51.488;6.668;2022-07-17T14:32:54;30.90;99.90
22071;DHT22;11200;51.488;6.668;2022-07-17T14:35:20;30.90;99.90
22071;DHT22;11200;51.488;6.668;2022-07-17T14:37:45;30.80;99.90
22071;DHT22;11200;51.488;6.668;2022-07-17T14:40:12;30.80;99.90
22071;DHT22;11200;51.488;6.668;2022-07-17T14:42:38;30.80;99.90
22071;DHT22;11200;51.488;6.668;2022-07-17T14:45:05;30.80;99.90
22071;DHT22;11200;51.488;6.668;2022-07-17T14:47:30;30.80;99.90
22071;DHT22;11200;51.488;6.668;2022-07-17T14:49:56;30.80;99.90
22071;DHT22;11200;51.488;6.668;2022-07-17T14:52:24;30.70;99.90
22071;DHT22;11200;51.488;6.668;2022-07-17T14:54:50;30.70;99.90
22071;DHT22;11200;51.488;6.668;2022-07-17T14:57:16;30.70;99.90
22071;DHT22;11200;51.488;6.668;2022-07-17T14:59:41;30.60;99.90
22071;DHT22;11200;51.488;6.668;2022-07-17T15:02:07;30.60;99.90
22071;DHT22;11200;51.488;6.668;2022-07-17T15:04:33;30.50;99.90
22071;DHT22;11200;51.488;6.668;2022-07-17T15:07:02;30.40;99.90
22071;DHT22;11200;51.488;6.668;2022-07-17T15:09:27;30.50;99.90
22071;DHT22;11200;51.488;6.668;2022-07-17T15:11:53;30.50;99.90
22071;DHT22;11200;51.488;6.668;2022-07-17T15:14:19;30.50;99.90
22071;DHT22;11200;51.488;6.668;2022-07-17T15:16:44;30.50;99.90
22071;DHT22;11200;51.488;6.668;2022-07-17T15:19:10;30.40;99.90
22071;DHT22;11200;51.488;6.668;2022-07-17T15:21:35;30.30;99.90
22071;DHT22;11200;51.488;6.668;2022-07-17T15:24:01;30.30;99.90
22071;DHT22;11200;51.488;6.668;2022-07-17T15:26:26;30.20;99.90
22071;DHT22;11200;51.488;6.668;2022-07-17T15:28:52;30.20;99.90
22071;DHT22;11200;51.488;6.668;2022-07-17T15:31:18;30.20;99.90
22071;DHT22;11200;51.488;6.668;2022-07-17T15:33:43;30.10;99.90
22071;DHT22;11200;51.488;6.668;2022-07-17T15:36:10;30.10;99.90
22071;DHT22;11200;51.488;6.668;2022-07-17T15:38:38;30.00;99.90
22071;DHT22;11200;51.488;6.668;2022-07-17T15:41:05;29.80;99.90
22071;DHT22;11200;51.488;6.668;2022-07-17T15:43:31;29.80;99.90